sensor_id;sensor_type;location;lat;lon;timestamp;P1;durP1;ratioP1;P2;durP2;ratioP2
25213;SDS011;13160;51.834;4.706;2022-10-28T00:00:16;19.02;;;11.70;;
25213;SDS011;13160;51.834;4.706;2022-10-28T00:02:49;20.77;;;12.70;;
25213;SDS011;13160;51.834;4.706;2022-10-28T00:05:20;18.77;;;12.02;;
25213;SDS011;13160;51.834;4.706;2022-10-28T00:07:52;17.48;;;12.05;;
25213;SDS011;13160;51.834;4.706;2022-10-28T00:10:24;22.95;;;12.27;;
25213;SDS011;13160;51.834;4.706;2022-10-28T00:12:55;18.90;;;12.50;;
25213;SDS011;13160;51.834;4.706;2022-10-28T00:15:24;20.52;;;12.63;;
25213;SDS011;13160;51.834;4.706;2022-10-28T00:17:53;22.00;;;12.05;;
25213;SDS011;13160;51.834;4.706;2022-10-28T00:20:24;20.10;;;11.35;;
25213;SDS011;13160;51.834;4.706;2022-10-28T00:22:58;18.08;;;11.90;;
25213;SDS011;13160;51.834;4.706;2022-10-28T00:25:30;20.52;;;11.57;;
25213;SDS011;13160;51.834;4.706;2022-10-28T00:28:16;20.02;;;11.60;;
25213;SDS011;13160;51.834;4.706;2022-10-28T00:30:48;22.50;;;11.63;;
25213;SDS011;13160;51.834;4.706;2022-10-28T00:33:21;23.75;;;11.73;;
25213;SDS011;13160;51.834;4.706;2022-10-28T00:35:53;21.48;;;11.85;;
25213;SDS011;13160;51.834;4.706;2022-10-28T00:38:22;23.15;;;12.27;;
25213;SDS011;13160;51.834;4.706;2022-10-28T00:40:53;18.15;;;11.27;;
25213;SDS011;13160;51.834;4.706;2022-10-28T00:43:32;19.88;;;12.05;;
25213;SDS011;13160;51.834;4.706;2022-10-28T00:46:19;18.23;;;11.00;;
25213;SDS011;13160;51.834;4.706;2022-10-28T00:48:54;18.85;;;11.73;;
25213;SDS011;13160;51.834;4.706;2022-10-28T00:51:28;19.23;;;10.95;;
25213;SDS011;13160;51.834;4.706;2022-10-28T00:54:00;16.00;;;10.70;;
25213;SDS011;13160;51.834;4.706;2022-10-28T00:56:35;18.92;;;11.00;;
25213;SDS011;13160;51.834;4.706;2022-10-28T00:59:10;19.25;;;11.55;;
25213;SDS011;13160;51.834;4.706;2022-10-28T01:01:51;21.75;;;11.35;;
25213;SDS011;13160;51.834;4.706;2022-10-28T01:04:23;19.17;;;11.23;;
25213;SDS011;13160;51.834;4.706;2022-10-28T01:06:55;16.70;;;11.02;;
25213;SDS011;13160;51.834;4.706;2022-10-28T01:09:26;19.70;;;11.00;;
25213;SDS011;13160;51.834;4.706;2022-10-28T01:11:55;22.92;;;10.63;;
25213;SDS011;13160;51.834;4.706;2022-10-28T01:14:38;18.48;;;10.55;;
25213;SDS011;13160;51.834;4.706;2022-10-28T01:17:27;16.35;;;10.80;;
25213;SDS011;13160;51.834;4.706;2022-10-28T01:23:37;17.65;;;10.77;;
25213;SDS011;13160;51.834;4.706;2022-10-28T01:26:29;21.30;;;11.18;;
25213;SDS011;13160;51.834;4.706;2022-10-28T01:32:45;21.83;;;11.40;;
25213;SDS011;13160;51.834;4.706;2022-10-28T01:35:25;20.17;;;11.57;;
25213;SDS011;13160;51.834;4.706;2022-10-28T01:38:08;15.40;;;10.95;;
25213;SDS011;13160;51.834;4.706;2022-10-28T01:40:56;19.00;;;11.07;;
25213;SDS011;13160;51.834;4.706;2022-10-28T01:43:39;23.48;;;11.35;;
25213;SDS011;13160;51.834;4.706;2022-10-28T01:46:15;22.10;;;11.40;;
25213;SDS011;13160;51.834;4.706;2022-10-28T01:48:51;20.83;;;11.63;;
25213;SDS011;13160;51.834;4.706;2022-10-28T01:51:28;18.98;;;10.63;;
25213;SDS011;13160;51.834;4.706;2022-10-28T01:54:02;22.00;;;11.40;;
25213;SDS011;13160;51.834;4.706;2022-10-28T01:56:38;18.60;;;11.02;;
25213;SDS011;13160;51.834;4.706;2022-10-28T01:59:11;19.90;;;10.75;;
25213;SDS011;13160;51.834;4.706;2022-10-28T02:01:44;17.38;;;10.65;;
25213;SDS011;13160;51.834;4.706;2022-10-28T02:04:15;21.63;;;10.85;;
25213;SDS011;13160;51.834;4.706;2022-10-28T02:06:49;23.40;;;11.38;;
25213;SDS011;13160;51.834;4.706;2022-10-28T02:09:26;18.23;;;11.02;;
25213;SDS011;13160;51.834;4.706;2022-10-28T02:12:25;21.23;;;11.40;;
25213;SDS011;13160;51.834;4.706;2022-10-28T02:15:13;21.63;;;11.70;;
25213;SDS011;13160;51.834;4.706;2022-10-28T02:17:55;19.40;;;11.52;;
25213;SDS011;13160;51.834;4.706;2022-10-28T02:20:47;17.50;;;11.25;;
25213;SDS011;13160;51.834;4.706;2022-10-28T02:23:23;23.75;;;12.05;;
25213;SDS011;13160;51.834;4.706;2022-10-28T02:26:05;18.95;;;11.00;;
25213;SDS011;13160;51.834;4.706;2022-10-28T02:28:49;17.58;;;11.15;;
25213;SDS011;13160;51.834;4.706;2022-10-28T02:31:27;19.63;;;10.43;;
25213;SDS011;13160;51.834;4.706;2022-10-28T02:34:02;17.23;;;10.63;;
25213;SDS011;13160;51.834;4.706;2022-10-28T02:36:41;18.70;;;10.68;;
25213;SDS011;13160;51.834;4.706;2022-10-28T02:39:15;15.68;;;10.52;;
25213;SDS011;13160;51.834;4.706;2022-10-28T02:41:49;18.88;;;11.55;;
25213;SDS011;13160;51.834;4.706;2022-10-28T02:44:22;20.55;;;11.40;;
25213;SDS011;13160;51.834;4.706;2022-10-28T02:46:56;16.60;;;10.45;;
25213;SDS011;13160;51.834;4.706;2022-10-28T02:49:38;17.63;;;10.65;;
25213;SDS011;13160;51.834;4.706;2022-10-28T02:52:14;16.75;;;10.10;;
25213;SDS011;13160;51.834;4.706;2022-10-28T02:54:48;20.77;;;10.98;;
25213;SDS011;13160;51.834;4.706;2022-10-28T02:57:22;18.25;;;10.60;;
25213;SDS011;13160;51.834;4.706;2022-10-28T02:59:55;15.95;;;10.55;;
25213;SDS011;13160;51.834;4.706;2022-10-28T03:02:28;20.55;;;11.02;;
25213;SDS011;13160;51.834;4.706;2022-10-28T03:05:02;20.63;;;10.90;;
25213;SDS011;13160;51.834;4.706;2022-10-28T03:07:33;18.65;;;10.77;;
25213;SDS011;13160;51.834;4.706;2022-10-28T03:10:14;17.88;;;11.05;;
25213;SDS011;13160;51.834;4.706;2022-10-28T03:12:58;16.55;;;10.38;;
25213;SDS011;13160;51.834;4.706;2022-10-28T03:15:29;20.70;;;11.10;;
25213;SDS011;13160;51.834;4.706;2022-10-28T03:17:58;23.90;;;10.50;;
25213;SDS011;13160;51.834;4.706;2022-10-28T03:20:27;20.45;;;10.40;;
25213;SDS011;13160;51.834;4.706;2022-10-28T03:22:59;18.73;;;11.05;;
25213;SDS011;13160;51.834;4.706;2022-10-28T03:25:29;19.25;;;10.88;;
25213;SDS011;13160;51.834;4.706;2022-10-28T03:27:58;17.80;;;10.15;;
25213;SDS011;13160;51.834;4.706;2022-10-28T03:30:43;19.58;;;10.70;;
25213;SDS011;13160;51.834;4.706;2022-10-28T03:33:15;20.60;;;10.35;;
25213;SDS011;13160;51.834;4.706;2022-10-28T03:35:44;22.70;;;10.43;;
25213;SDS011;13160;51.834;4.706;2022-10-28T03:38:18;21.98;;;10.18;;
25213;SDS011;13160;51.834;4.706;2022-10-28T03:40:58;17.13;;;10.15;;
25213;SDS011;13160;51.834;4.706;2022-10-28T03:43:27;17.10;;;9.93;;
25213;SDS011;13160;51.834;4.706;2022-10-28T03:45:56;17.98;;;10.05;;
25213;SDS011;13160;51.834;4.706;2022-10-28T03:48:27;21.35;;;10.23;;
25213;SDS011;13160;51.834;4.706;2022-10-28T03:50:57;22.42;;;10.90;;
25213;SDS011;13160;51.834;4.706;2022-10-28T03:53:28;18.67;;;9.70;;
25213;SDS011;13160;51.834;4.706;2022-10-28T03:56:02;16.05;;;9.75;;
25213;SDS011;13160;51.834;4.706;2022-10-28T03:58:34;20.15;;;10.07;;
25213;SDS011;13160;51.834;4.706;2022-10-28T04:01:07;19.02;;;10.38;;
25213;SDS011;13160;51.834;4.706;2022-10-28T04:03:36;20.02;;;10.35;;
25213;SDS011;13160;51.834;4.706;2022-10-28T04:06:06;18.27;;;10.75;;
25213;SDS011;13160;51.834;4.706;2022-10-28T04:08:38;15.68;;;9.90;;
25213;SDS011;13160;51.834;4.706;2022-10-28T04:11:07;24.52;;;9.57;;
25213;SDS011;13160;51.834;4.706;2022-10-28T04:13:42;18.80;;;9.82;;
25213;SDS011;13160;51.834;4.706;2022-10-28T04:16:14;23.00;;;10.65;;
25213;SDS011;13160;51.834;4.706;2022-10-28T04:18:48;18.90;;;10.02;;
25213;SDS011;13160;51.834;4.706;2022-10-28T04:21:18;19.08;;;9.45;;
25213;SDS011;13160;51.834;4.706;2022-10-28T04:23:53;17.85;;;9.90;;
25213;SDS011;13160;51.834;4.706;2022-10-28T04:26:25;21.88;;;10.57;;
25213;SDS011;13160;51.834;4.706;2022-10-28T04:28:58;20.58;;;9.82;;
25213;SDS011;13160;51.834;4.706;2022-10-28T04:31:27;22.00;;;10.27;;
25213;SDS011;13160;51.834;4.706;2022-10-28T04:33:56;17.60;;;9.90;;
25213;SDS011;13160;51.834;4.706;2022-10-28T04:36:27;16.42;;;9.35;;
25213;SDS011;13160;51.834;4.706;2022-10-28T04:39:02;17.58;;;9.60;;
25213;SDS011;13160;51.834;4.706;2022-10-28T04:41:33;17.55;;;9.50;;
25213;SDS011;13160;51.834;4.706;2022-10-28T04:44:04;18.80;;;9.48;;
25213;SDS011;13160;51.834;4.706;2022-10-28T04:46:34;15.82;;;9.52;;
25213;SDS011;13160;51.834;4.706;2022-10-28T04:49:07;15.43;;;9.15;;
25213;SDS011;13160;51.834;4.706;2022-10-28T04:51:54;16.23;;;9.65;;
25213;SDS011;13160;51.834;4.706;2022-10-28T04:54:25;18.00;;;9.63;;
25213;SDS011;13160;51.834;4.706;2022-10-28T04:56:55;13.82;;;8.43;;
25213;SDS011;13160;51.834;4.706;2022-10-28T04:59:25;20.45;;;9.73;;
25213;SDS011;13160;51.834;4.706;2022-10-28T05:01:56;16.15;;;9.00;;
25213;SDS011;13160;51.834;4.706;2022-10-28T05:04:28;19.67;;;9.35;;
25213;SDS011;13160;51.834;4.706;2022-10-28T05:07:00;18.48;;;9.48;;
25213;SDS011;13160;51.834;4.706;2022-10-28T05:09:33;20.30;;;9.88;;
25213;SDS011;13160;51.834;4.706;2022-10-28T05:12:06;18.17;;;9.00;;
25213;SDS011;13160;51.834;4.706;2022-10-28T05:14:36;20.25;;;9.38;;
25213;SDS011;13160;51.834;4.706;2022-10-28T05:17:09;16.45;;;8.57;;
25213;SDS011;13160;51.834;4.706;2022-10-28T05:19:51;16.58;;;8.60;;
25213;SDS011;13160;51.834;4.706;2022-10-28T05:22:24;16.70;;;9.48;;
25213;SDS011;13160;51.834;4.706;2022-10-28T05:24:57;13.55;;;8.10;;
25213;SDS011;13160;51.834;4.706;2022-10-28T05:27:26;20.05;;;8.85;;
25213;SDS011;13160;51.834;4.706;2022-10-28T05:29:55;19.88;;;9.48;;
25213;SDS011;13160;51.834;4.706;2022-10-28T05:32:31;22.17;;;9.48;;
25213;SDS011;13160;51.834;4.706;2022-10-28T05:35:01;18.40;;;8.95;;
25213;SDS011;13160;51.834;4.706;2022-10-28T05:37:29;20.42;;;9.65;;
25213;SDS011;13160;51.834;4.706;2022-10-28T05:40:06;15.85;;;8.30;;
25213;SDS011;13160;51.834;4.706;2022-10-28T05:42:42;21.08;;;9.02;;
25213;SDS011;13160;51.834;4.706;2022-10-28T05:45:16;17.50;;;8.70;;
25213;SDS011;13160;51.834;4.706;2022-10-28T05:47:46;17.83;;;8.75;;
25213;SDS011;13160;51.834;4.706;2022-10-28T05:50:20;16.48;;;9.10;;
25213;SDS011;13160;51.834;4.706;2022-10-28T05:52:54;13.93;;;8.57;;
25213;SDS011;13160;51.834;4.706;2022-10-28T05:55:30;17.13;;;8.48;;
25213;SDS011;13160;51.834;4.706;2022-10-28T05:58:00;17.15;;;8.77;;
25213;SDS011;13160;51.834;4.706;2022-10-28T06:00:34;17.27;;;8.93;;
25213;SDS011;13160;51.834;4.706;2022-10-28T06:03:07;15.57;;;8.63;;
25213;SDS011;13160;51.834;4.706;2022-10-28T06:05:42;16.13;;;8.75;;
25213;SDS011;13160;51.834;4.706;2022-10-28T06:08:17;20.73;;;8.70;;
25213;SDS011;13160;51.834;4.706;2022-10-28T06:10:56;18.63;;;9.13;;
25213;SDS011;13160;51.834;4.706;2022-10-28T06:13:29;16.88;;;8.80;;
25213;SDS011;13160;51.834;4.706;2022-10-28T06:15:59;19.63;;;8.57;;
25213;SDS011;13160;51.834;4.706;2022-10-28T06:18:30;18.70;;;8.77;;
25213;SDS011;13160;51.834;4.706;2022-10-28T06:21:03;16.35;;;8.18;;
25213;SDS011;13160;51.834;4.706;2022-10-28T06:23:37;21.88;;;8.40;;
25213;SDS011;13160;51.834;4.706;2022-10-28T06:26:29;21.13;;;8.75;;
25213;SDS011;13160;51.834;4.706;2022-10-28T06:29:00;15.82;;;8.43;;
25213;SDS011;13160;51.834;4.706;2022-10-28T06:31:30;15.75;;;8.88;;
25213;SDS011;13160;51.834;4.706;2022-10-28T06:34:01;18.60;;;8.95;;
25213;SDS011;13160;51.834;4.706;2022-10-28T06:36:35;20.55;;;8.50;;
25213;SDS011;13160;51.834;4.706;2022-10-28T06:39:09;15.70;;;8.65;;
25213;SDS011;13160;51.834;4.706;2022-10-28T06:41:40;15.85;;;8.23;;
25213;SDS011;13160;51.834;4.706;2022-10-28T06:44:13;24.90;;;9.57;;
25213;SDS011;13160;51.834;4.706;2022-10-28T06:46:45;15.00;;;8.73;;
25213;SDS011;13160;51.834;4.706;2022-10-28T06:49:21;14.68;;;8.77;;
25213;SDS011;13160;51.834;4.706;2022-10-28T06:52:00;20.48;;;9.18;;
25213;SDS011;13160;51.834;4.706;2022-10-28T06:54:41;17.90;;;9.18;;
25213;SDS011;13160;51.834;4.706;2022-10-28T06:57:17;18.60;;;9.07;;
25213;SDS011;13160;51.834;4.706;2022-10-28T06:59:52;21.00;;;9.88;;
25213;SDS011;13160;51.834;4.706;2022-10-28T07:02:21;15.13;;;8.10;;
25213;SDS011;13160;51.834;4.706;2022-10-28T07:04:51;25.45;;;9.25;;
25213;SDS011;13160;51.834;4.706;2022-10-28T07:07:24;18.83;;;9.18;;
25213;SDS011;13160;51.834;4.706;2022-10-28T07:09:55;19.58;;;9.35;;
25213;SDS011;13160;51.834;4.706;2022-10-28T07:12:27;17.98;;;9.10;;
25213;SDS011;13160;51.834;4.706;2022-10-28T07:15:02;20.95;;;9.73;;
25213;SDS011;13160;51.834;4.706;2022-10-28T07:17:44;18.77;;;8.77;;
25213;SDS011;13160;51.834;4.706;2022-10-28T07:20:21;20.92;;;9.40;;
25213;SDS011;13160;51.834;4.706;2022-10-28T07:23:01;19.08;;;8.27;;
25213;SDS011;13160;51.834;4.706;2022-10-28T07:25:36;18.40;;;9.23;;
25213;SDS011;13160;51.834;4.706;2022-10-28T07:28:07;19.73;;;8.95;;
25213;SDS011;13160;51.834;4.706;2022-10-28T07:30:45;14.00;;;8.32;;
25213;SDS011;13160;51.834;4.706;2022-10-28T07:33:31;18.02;;;8.52;;
25213;SDS011;13160;51.834;4.706;2022-10-28T07:36:09;18.17;;;8.73;;
25213;SDS011;13160;51.834;4.706;2022-10-28T07:38:51;23.40;;;8.40;;
25213;SDS011;13160;51.834;4.706;2022-10-28T07:41:22;18.13;;;8.73;;
25213;SDS011;13160;51.834;4.706;2022-10-28T07:43:54;18.38;;;8.73;;
25213;SDS011;13160;51.834;4.706;2022-10-28T07:46:29;18.45;;;8.82;;
25213;SDS011;13160;51.834;4.706;2022-10-28T07:49:02;17.50;;;8.25;;
25213;SDS011;13160;51.834;4.706;2022-10-28T07:51:30;19.05;;;9.90;;
25213;SDS011;13160;51.834;4.706;2022-10-28T07:54:03;19.02;;;8.93;;
25213;SDS011;13160;51.834;4.706;2022-10-28T07:56:49;18.35;;;8.90;;
25213;SDS011;13160;51.834;4.706;2022-10-28T07:59:27;17.13;;;8.63;;
25213;SDS011;13160;51.834;4.706;2022-10-28T08:02:03;20.25;;;9.05;;
25213;SDS011;13160;51.834;4.706;2022-10-28T08:04:33;18.52;;;8.90;;
25213;SDS011;13160;51.834;4.706;2022-10-28T08:07:05;19.27;;;9.50;;
25213;SDS011;13160;51.834;4.706;2022-10-28T08:09:35;17.23;;;9.18;;
25213;SDS011;13160;51.834;4.706;2022-10-28T08:12:29;19.35;;;8.43;;
25213;SDS011;13160;51.834;4.706;2022-10-28T08:15:09;15.63;;;8.40;;
25213;SDS011;13160;51.834;4.706;2022-10-28T08:17:40;17.52;;;7.97;;
25213;SDS011;13160;51.834;4.706;2022-10-28T08:20:32;16.77;;;7.90;;
25213;SDS011;13160;51.834;4.706;2022-10-28T08:23:01;18.30;;;9.05;;
25213;SDS011;13160;51.834;4.706;2022-10-28T08:25:46;19.08;;;8.38;;
25213;SDS011;13160;51.834;4.706;2022-10-28T08:28:19;17.48;;;8.88;;
25213;SDS011;13160;51.834;4.706;2022-10-28T08:31:00;18.70;;;8.30;;
25213;SDS011;13160;51.834;4.706;2022-10-28T08:33:36;21.08;;;9.10;;
25213;SDS011;13160;51.834;4.706;2022-10-28T08:36:13;17.38;;;8.52;;
25213;SDS011;13160;51.834;4.706;2022-10-28T08:38:48;19.45;;;8.63;;
25213;SDS011;13160;51.834;4.706;2022-10-28T08:41:24;21.38;;;8.88;;
25213;SDS011;13160;51.834;4.706;2022-10-28T08:47:56;22.77;;;9.43;;
25213;SDS011;13160;51.834;4.706;2022-10-28T08:50:52;19.75;;;9.05;;
25213;SDS011;13160;51.834;4.706;2022-10-28T08:53:31;21.92;;;9.45;;
25213;SDS011;13160;51.834;4.706;2022-10-28T08:56:09;20.42;;;9.20;;
25213;SDS011;13160;51.834;4.706;2022-10-28T08:58:59;17.00;;;8.90;;
25213;SDS011;13160;51.834;4.706;2022-10-28T09:01:46;21.85;;;8.90;;
25213;SDS011;13160;51.834;4.706;2022-10-28T09:04:35;19.38;;;9.02;;
25213;SDS011;13160;51.834;4.706;2022-10-28T09:07:09;19.48;;;8.98;;
25213;SDS011;13160;51.834;4.706;2022-10-28T09:09:50;15.07;;;8.38;;
25213;SDS011;13160;51.834;4.706;2022-10-28T09:12:27;20.73;;;8.68;;
25213;SDS011;13160;51.834;4.706;2022-10-28T09:15:25;20.85;;;8.52;;
25213;SDS011;13160;51.834;4.706;2022-10-28T09:18:18;15.98;;;8.10;;
25213;SDS011;13160;51.834;4.706;2022-10-28T10:57:55;14.60;;;6.22;;
25213;SDS011;13160;51.834;4.706;2022-10-28T11:00:27;19.33;;;6.68;;
25213;SDS011;13160;51.834;4.706;2022-10-28T11:03:00;18.17;;;6.75;;
25213;SDS011;13160;51.834;4.706;2022-10-28T11:05:35;16.17;;;7.00;;
25213;SDS011;13160;51.834;4.706;2022-10-28T11:08:10;17.85;;;6.88;;
25213;SDS011;13160;51.834;4.706;2022-10-28T11:11:06;20.65;;;6.72;;
25213;SDS011;13160;51.834;4.706;2022-10-28T11:51:32;21.10;;;6.18;;
25213;SDS011;13160;51.834;4.706;2022-10-28T12:12:22;18.85;;;5.95;;
25213;SDS011;13160;51.834;4.706;2022-10-28T12:14:59;17.98;;;6.15;;
25213;SDS011;13160;51.834;4.706;2022-10-28T12:20:22;18.08;;;5.55;;
25213;SDS011;13160;51.834;4.706;2022-10-28T12:29:05;16.05;;;5.47;;
25213;SDS011;13160;51.834;4.706;2022-10-28T12:31:46;20.30;;;6.10;;
25213;SDS011;13160;51.834;4.706;2022-10-28T12:34:37;17.20;;;5.65;;
25213;SDS011;13160;51.834;4.706;2022-10-28T12:37:11;20.50;;;6.03;;
25213;SDS011;13160;51.834;4.706;2022-10-28T12:39:46;19.25;;;5.57;;
25213;SDS011;13160;51.834;4.706;2022-10-28T12:42:23;15.18;;;6.05;;
25213;SDS011;13160;51.834;4.706;2022-10-28T12:44:58;16.40;;;5.78;;
25213;SDS011;13160;51.834;4.706;2022-10-28T12:47:36;14.27;;;5.50;;
25213;SDS011;13160;51.834;4.706;2022-10-28T12:50:13;21.98;;;6.00;;
25213;SDS011;13160;51.834;4.706;2022-10-28T12:52:53;21.27;;;6.47;;
25213;SDS011;13160;51.834;4.706;2022-10-28T12:55:44;16.42;;;6.13;;
25213;SDS011;13160;51.834;4.706;2022-10-28T12:58:22;18.48;;;6.75;;
25213;SDS011;13160;51.834;4.706;2022-10-28T13:01:03;17.15;;;6.32;;
25213;SDS011;13160;51.834;4.706;2022-10-28T13:03:37;19.55;;;5.95;;
25213;SDS011;13160;51.834;4.706;2022-10-28T13:09:35;15.18;;;5.88;;
25213;SDS011;13160;51.834;4.706;2022-10-28T13:22:02;15.57;;;5.90;;
25213;SDS011;13160;51.834;4.706;2022-10-28T13:27:53;15.40;;;6.00;;
25213;SDS011;13160;51.834;4.706;2022-10-28T13:30:23;16.33;;;6.05;;
25213;SDS011;13160;51.834;4.706;2022-10-28T13:32:58;15.77;;;6.50;;
25213;SDS011;13160;51.834;4.706;2022-10-28T13:35:34;18.23;;;6.47;;
25213;SDS011;13160;51.834;4.706;2022-10-28T13:38:08;16.27;;;6.28;;
25213;SDS011;13160;51.834;4.706;2022-10-28T13:47:02;15.75;;;5.35;;
25213;SDS011;13160;51.834;4.706;2022-10-28T13:56:24;20.95;;;5.75;;
25213;SDS011;13160;51.834;4.706;2022-10-28T13:59:21;14.15;;;5.00;;
25213;SDS011;13160;51.834;4.706;2022-10-28T14:01:56;15.52;;;4.75;;
25213;SDS011;13160;51.834;4.706;2022-10-28T14:04:58;14.80;;;4.32;;
25213;SDS011;13160;51.834;4.706;2022-10-28T14:07:29;11.65;;;4.43;;
25213;SDS011;13160;51.834;4.706;2022-10-28T14:10:12;11.90;;;4.18;;
25213;SDS011;13160;51.834;4.706;2022-10-28T14:12:50;14.50;;;4.63;;
25213;SDS011;13160;51.834;4.706;2022-10-28T14:15:23;15.77;;;4.75;;
25213;SDS011;13160;51.834;4.706;2022-10-28T14:17:58;12.57;;;4.90;;
25213;SDS011;13160;51.834;4.706;2022-10-28T14:20:42;18.95;;;5.65;;
25213;SDS011;13160;51.834;4.706;2022-10-28T14:23:59;11.60;;;5.07;;
25213;SDS011;13160;51.834;4.706;2022-10-28T14:30:16;13.23;;;4.63;;
25213;SDS011;13160;51.834;4.706;2022-10-28T14:35:56;13.70;;;5.30;;
25213;SDS011;13160;51.834;4.706;2022-10-28T14:38:50;17.73;;;5.40;;
25213;SDS011;13160;51.834;4.706;2022-10-28T14:41:53;13.25;;;5.05;;
25213;SDS011;13160;51.834;4.706;2022-10-28T14:44:49;15.48;;;5.47;;
25213;SDS011;13160;51.834;4.706;2022-10-28T14:47:52;19.70;;;5.55;;
25213;SDS011;13160;51.834;4.706;2022-10-28T14:51:07;13.90;;;5.85;;
25213;SDS011;13160;51.834;4.706;2022-10-28T14:53:40;15.88;;;6.05;;
25213;SDS011;13160;51.834;4.706;2022-10-28T14:56:21;14.95;;;5.85;;
25213;SDS011;13160;51.834;4.706;2022-10-28T14:58:56;15.68;;;5.25;;
25213;SDS011;13160;51.834;4.706;2022-10-28T15:01:44;16.10;;;5.30;;
25213;SDS011;13160;51.834;4.706;2022-10-28T15:04:29;14.63;;;5.47;;
25213;SDS011;13160;51.834;4.706;2022-10-28T15:06:59;21.73;;;5.75;;
25213;SDS011;13160;51.834;4.706;2022-10-28T15:09:30;20.33;;;5.18;;
25213;SDS011;13160;51.834;4.706;2022-10-28T15:12:01;14.40;;;5.05;;
25213;SDS011;13160;51.834;4.706;2022-10-28T15:14:37;16.50;;;5.93;;
25213;SDS011;13160;51.834;4.706;2022-10-28T15:17:12;13.90;;;5.47;;
25213;SDS011;13160;51.834;4.706;2022-10-28T15:19:44;14.27;;;5.30;;
25213;SDS011;13160;51.834;4.706;2022-10-28T15:22:19;18.17;;;5.53;;
25213;SDS011;13160;51.834;4.706;2022-10-28T15:24:54;15.25;;;5.60;;
25213;SDS011;13160;51.834;4.706;2022-10-28T15:27:26;18.23;;;6.35;;
25213;SDS011;13160;51.834;4.706;2022-10-28T15:29:58;20.00;;;6.47;;
25213;SDS011;13160;51.834;4.706;2022-10-28T15:32:31;17.85;;;5.75;;
25213;SDS011;13160;51.834;4.706;2022-10-28T15:41:20;17.00;;;6.07;;
25213;SDS011;13160;51.834;4.706;2022-10-28T15:44:22;13.85;;;5.88;;
25213;SDS011;13160;51.834;4.706;2022-10-28T15:46:56;15.00;;;6.00;;
25213;SDS011;13160;51.834;4.706;2022-10-28T15:49:44;19.20;;;6.90;;
25213;SDS011;13160;51.834;4.706;2022-10-28T15:52:33;17.38;;;6.45;;
25213;SDS011;13160;51.834;4.706;2022-10-28T15:58:29;20.30;;;7.00;;
25213;SDS011;13160;51.834;4.706;2022-10-28T16:01:07;16.60;;;6.20;;
25213;SDS011;13160;51.834;4.706;2022-10-28T16:03:54;16.33;;;6.88;;
25213;SDS011;13160;51.834;4.706;2022-10-28T16:06:28;19.40;;;6.63;;
25213;SDS011;13160;51.834;4.706;2022-10-28T16:09:03;21.35;;;6.50;;
25213;SDS011;13160;51.834;4.706;2022-10-28T16:11:50;16.13;;;6.22;;
25213;SDS011;13160;51.834;4.706;2022-10-28T16:14:27;18.73;;;5.57;;
25213;SDS011;13160;51.834;4.706;2022-10-28T16:17:02;20.35;;;6.65;;
25213;SDS011;13160;51.834;4.706;2022-10-28T16:19:36;17.88;;;6.15;;
25213;SDS011;13160;51.834;4.706;2022-10-28T16:22:11;20.50;;;6.13;;
25213;SDS011;13160;51.834;4.706;2022-10-28T16:24:41;19.88;;;5.80;;
25213;SDS011;13160;51.834;4.706;2022-10-28T16:27:15;16.33;;;5.60;;
25213;SDS011;13160;51.834;4.706;2022-10-28T16:29:46;22.67;;;5.43;;
25213;SDS011;13160;51.834;4.706;2022-10-28T16:32:20;21.45;;;6.13;;
25213;SDS011;13160;51.834;4.706;2022-10-28T16:37:34;21.00;;;6.05;;
25213;SDS011;13160;51.834;4.706;2022-10-28T16:40:12;19.05;;;7.78;;
25213;SDS011;13160;51.834;4.706;2022-10-28T16:43:03;22.38;;;7.32;;
25213;SDS011;13160;51.834;4.706;2022-10-28T16:45:41;22.50;;;7.85;;
25213;SDS011;13160;51.834;4.706;2022-10-28T16:48:10;23.13;;;7.13;;
25213;SDS011;13160;51.834;4.706;2022-10-28T16:50:42;18.38;;;6.72;;
25213;SDS011;13160;51.834;4.706;2022-10-28T16:53:17;19.98;;;9.00;;
25213;SDS011;13160;51.834;4.706;2022-10-28T16:55:46;22.42;;;7.68;;
25213;SDS011;13160;51.834;4.706;2022-10-28T16:58:16;19.60;;;8.15;;
25213;SDS011;13160;51.834;4.706;2022-10-28T17:00:53;24.52;;;8.73;;
25213;SDS011;13160;51.834;4.706;2022-10-28T17:03:23;20.85;;;6.93;;
25213;SDS011;13160;51.834;4.706;2022-10-28T17:05:53;20.92;;;7.07;;
25213;SDS011;13160;51.834;4.706;2022-10-28T17:08:26;19.08;;;6.88;;
25213;SDS011;13160;51.834;4.706;2022-10-28T17:11:15;22.45;;;7.30;;
25213;SDS011;13160;51.834;4.706;2022-10-28T17:13:43;23.65;;;6.88;;
25213;SDS011;13160;51.834;4.706;2022-10-28T17:16:23;18.63;;;7.10;;
25213;SDS011;13160;51.834;4.706;2022-10-28T17:18:53;23.15;;;6.85;;
25213;SDS011;13160;51.834;4.706;2022-10-28T17:21:22;26.65;;;7.30;;
25213;SDS011;13160;51.834;4.706;2022-10-28T17:24:04;19.90;;;7.13;;
25213;SDS011;13160;51.834;4.706;2022-10-28T17:26:46;25.05;;;6.65;;
25213;SDS011;13160;51.834;4.706;2022-10-28T17:29:19;23.85;;;6.32;;
25213;SDS011;13160;51.834;4.706;2022-10-28T17:31:51;21.00;;;6.60;;
25213;SDS011;13160;51.834;4.706;2022-10-28T17:34:20;23.92;;;7.50;;
25213;SDS011;13160;51.834;4.706;2022-10-28T17:36:51;25.00;;;7.20;;
25213;SDS011;13160;51.834;4.706;2022-10-28T17:39:24;21.38;;;6.05;;
25213;SDS011;13160;51.834;4.706;2022-10-28T17:41:54;22.58;;;5.80;;
25213;SDS011;13160;51.834;4.706;2022-10-28T17:44:24;31.00;;;6.78;;
25213;SDS011;13160;51.834;4.706;2022-10-28T17:46:56;16.67;;;5.53;;
25213;SDS011;13160;51.834;4.706;2022-10-28T17:49:28;27.45;;;7.03;;
25213;SDS011;13160;51.834;4.706;2022-10-28T17:52:02;20.33;;;5.53;;
25213;SDS011;13160;51.834;4.706;2022-10-28T17:54:33;24.10;;;5.47;;
25213;SDS011;13160;51.834;4.706;2022-10-28T17:57:07;18.98;;;5.55;;
25213;SDS011;13160;51.834;4.706;2022-10-28T17:59:45;25.88;;;5.82;;
25213;SDS011;13160;51.834;4.706;2022-10-28T18:02:17;23.40;;;5.57;;
25213;SDS011;13160;51.834;4.706;2022-10-28T18:04:55;20.38;;;6.35;;
25213;SDS011;13160;51.834;4.706;2022-10-28T18:07:34;27.23;;;6.18;;
25213;SDS011;13160;51.834;4.706;2022-10-28T18:10:14;21.38;;;5.20;;
25213;SDS011;13160;51.834;4.706;2022-10-28T18:15:37;19.90;;;5.20;;
25213;SDS011;13160;51.834;4.706;2022-10-28T18:18:19;20.92;;;5.75;;
25213;SDS011;13160;51.834;4.706;2022-10-28T18:21:00;19.02;;;5.35;;
25213;SDS011;13160;51.834;4.706;2022-10-28T18:23:32;23.20;;;5.97;;
25213;SDS011;13160;51.834;4.706;2022-10-28T18:26:14;18.23;;;4.90;;
25213;SDS011;13160;51.834;4.706;2022-10-28T18:28:53;17.80;;;5.05;;
25213;SDS011;13160;51.834;4.706;2022-10-28T18:31:30;18.67;;;4.97;;
25213;SDS011;13160;51.834;4.706;2022-10-28T18:34:15;17.38;;;5.03;;
25213;SDS011;13160;51.834;4.706;2022-10-28T18:36:43;25.33;;;5.43;;
25213;SDS011;13160;51.834;4.706;2022-10-28T18:52:27;21.65;;;5.55;;
25213;SDS011;13160;51.834;4.706;2022-10-28T18:55:20;20.85;;;5.25;;
25213;SDS011;13160;51.834;4.706;2022-10-28T19:04:05;22.63;;;5.60;;
25213;SDS011;13160;51.834;4.706;2022-10-28T19:06:37;22.95;;;5.18;;
25213;SDS011;13160;51.834;4.706;2022-10-28T19:09:20;19.55;;;4.65;;
25213;SDS011;13160;51.834;4.706;2022-10-28T19:45:19;30.65;;;5.63;;
25213;SDS011;13160;51.834;4.706;2022-10-28T19:55:00;26.95;;;6.40;;
25213;SDS011;13160;51.834;4.706;2022-10-28T19:57:57;27.15;;;7.28;;
25213;SDS011;13160;51.834;4.706;2022-10-28T20:13:14;31.10;;;6.82;;
25213;SDS011;13160;51.834;4.706;2022-10-28T20:15:44;22.73;;;5.50;;
25213;SDS011;13160;51.834;4.706;2022-10-28T20:18:13;24.83;;;5.93;;
25213;SDS011;13160;51.834;4.706;2022-10-28T20:20:42;20.83;;;5.57;;